Time;durP1;ratioP1;P1;durP2;ratioP2;P2;SDS_P1;SDS_P2;PMS_P1;PMS_P2;Temp;Humidity;BMP_temperature;BMP_pressure;BME280_temperature;BME280_humidity;BME280_pressure;Samples;Min_cycle;Max_cycle;Signal;HPM_P1;HPM_P2
2022/05/15 00:01:36;;;;;;;;;16.40;13.40;;;;;20.64;39.27;99613.75;5050482;28;8835;-73
2022/05/15 00:04:07;;;;;;;;;13.00;13.00;;;;;20.62;39.23;99620.00;5047350;28;8919;-74
2022/05/15 00:06:36;;;;;;;;;15.40;13.40;;;;;20.57;39.41;99617.53;5062016;28;9030;-74
2022/05/15 00:09:05;;;;;;;;;14.00;14.00;;;;;20.53;39.45;99623.00;5047605;28;8867;-76
2022/05/15 00:11:33;;;;;;;;;11.40;11.40;;;;;20.50;39.60;99616.03;5046858;28;8871;-74
2022/05/15 00:14:02;;;;;;;;;13.00;13.00;;;;;20.39;39.91;99629.72;5027484;28;8882;-74
2022/05/15 00:16:32;;;;;;;;;12.80;11.80;;;;;20.36;39.87;99624.56;5029331;28;8852;-74
2022/05/15 00:19:01;;;;;;;;;11.60;11.60;;;;;20.35;39.88;99632.56;5029334;28;8844;-73
2022/05/15 00:21:31;;;;;;;;;12.00;10.80;;;;;20.29;39.97;99625.72;5029049;28;9015;-76
2022/05/15 00:24:00;;;;;;;;;13.80;13.00;;;;;20.26;40.14;99633.75;5011365;28;8874;-74
2022/05/15 00:26:28;;;;;;;;;9.00;9.00;;;;;20.23;40.01;99629.47;5046634;28;8835;-75
2022/05/15 00:28:58;;;;;;;;;14.80;14.80;;;;;20.20;40.28;99626.91;5045172;28;8858;-75
2022/05/15 00:31:27;;;;;;;;;15.00;15.00;;;;;20.18;40.45;99625.28;5046666;28;8855;-74
2022/05/15 00:33:56;;;;;;;;;13.00;12.60;;;;;20.14;40.37;99627.16;5027145;28;8850;-72
2022/05/15 00:36:25;;;;;;;;;12.80;12.60;;;;;20.10;40.43;99628.22;5062009;28;8860;-72
2022/05/15 00:38:55;;;;;;;;;11.60;11.20;;;;;20.06;40.59;99627.47;5046585;28;8889;-73
2022/05/15 00:41:23;;;;;;;;;14.20;11.20;;;;;20.03;40.72;99626.72;5049438;28;8890;-73
2022/05/15 00:43:54;;;;;;;;;14.00;14.00;;;;;20.00;40.75;99635.66;5061699;28;10287;-73
2022/05/15 00:46:26;;;;;;;;;14.20;12.60;;;;;19.96;40.86;99639.34;5047489;28;8923;-73
2022/05/15 00:48:56;;;;;;;;;15.60;15.20;;;;;19.90;41.04;99642.19;5049408;28;8992;-74
2022/05/15 00:51:31;;;;;;;;;12.20;12.00;;;;;19.88;41.19;99637.88;5061568;28;8933;-73
2022/05/15 00:54:08;;;;;;;;;13.00;12.20;;;;;19.86;41.09;99632.66;5061744;28;9594;-75
2022/05/15 00:56:41;;;;;;;;;15.40;14.00;;;;;19.82;41.38;99628.41;5045139;28;8870;-76
2022/05/15 00:59:15;;;;;;;;;13.20;13.20;;;;;19.78;41.43;99635.56;5061782;28;8948;-73
2022/05/15 01:01:44;;;;;;;;;14.40;12.60;;;;;19.75;41.34;99629.53;5046767;28;8916;-73
2022/05/15 01:04:13;;;;;;;;;14.60;13.20;;;;;19.72;41.41;99619.94;5044106;28;8929;-74
2022/05/15 01:06:43;;;;;;;;;11.00;10.60;;;;;19.68;41.41;99623.59;5046485;28;8920;-75
2022/05/15 01:09:16;;;;;;;;;12.20;12.20;;;;;19.65;41.62;99629.84;5061258;28;8936;-74
2022/05/15 01:11:49;;;;;;;;;11.80;11.80;;;;;19.64;41.83;99625.47;5044893;28;8844;-72
2022/05/15 01:14:20;;;;;;;;;15.20;15.20;;;;;19.60;42.01;99623.88;5061514;28;8835;-74
2022/05/15 01:16:50;;;;;;;;;13.00;13.00;;;;;19.60;41.95;99628.28;5046323;28;8864;-73
2022/05/15 01:19:29;;;;;;;;;13.60;12.80;;;;;19.56;42.00;99616.94;5053742;28;9613;-74
2022/05/15 01:22:00;;;;;;;;;14.60;14.60;;;;;19.48;42.27;99619.88;5066443;28;8852;-73
2022/05/15 01:24:30;;;;;;;;;14.80;14.80;;;;;19.45;42.52;99621.75;5065987;28;8868;-74
2022/05/15 01:27:04;;;;;;;;;11.80;11.80;;;;;19.41;42.74;99623.66;5066176;28;8990;-74
2022/05/15 01:29:36;;;;;;;;;16.40;16.40;;;;;19.39;42.84;99621.97;5065978;28;8856;-75
2022/05/15 01:32:06;;;;;;;;;14.00;14.00;;;;;19.36;42.78;99620.31;5049532;28;8852;-74
2022/05/15 01:34:35;;;;;;;;;15.80;14.00;;;;;19.34;43.16;99610.69;5013717;28;9609;-74
2022/05/15 01:37:07;;;;;;;;;11.00;10.80;;;;;19.30;43.11;99615.25;5046370;28;9016;-73
2022/05/15 01:39:38;;;;;;;;;16.60;15.40;;;;;19.26;43.11;99609.22;5066177;28;8880;-73
2022/05/15 01:42:08;;;;;;;;;14.00;13.80;;;;;19.23;43.25;99621.66;5015648;28;8870;-74
2022/05/15 01:44:37;;;;;;;;;11.60;10.40;;;;;19.19;43.31;99614.75;5049028;28;8831;-73
2022/05/15 01:47:06;;;;;;;;;13.40;13.40;;;;;19.18;43.37;99615.66;5049645;28;8916;-74
2022/05/15 01:49:34;;;;;;;;;16.20;15.00;;;;;19.15;43.30;99619.28;5035201;28;8864;-72
2022/05/15 01:52:06;;;;;;;;;15.00;15.00;;;;;19.13;43.60;99620.25;5070624;28;8852;-74
2022/05/15 01:54:35;;;;;;;;;14.20;13.60;;;;;19.07;43.43;99616.03;5068289;28;8987;-74
2022/05/15 01:57:03;;;;;;;;;15.40;15.40;;;;;18.97;44.11;99618.13;5070979;28;8889;-73
2022/05/15 01:59:33;;;;;;;;;14.50;14.50;;;;;18.94;43.99;99610.31;5069651;28;8905;-74
2022/05/15 02:02:02;;;;;;;;;12.60;12.60;;;;;18.93;43.87;99618.28;5070273;28;8844;-75
2022/05/15 02:04:30;;;;;;;;;15.40;13.80;;;;;18.89;44.08;99615.75;5066116;28;8858;-75
2022/05/15 02:07:00;;;;;;;;;16.20;15.40;;;;;18.89;44.10;99615.75;5066329;28;8909;-73
2022/05/15 02:09:30;;;;;;;;;9.20;8.20;;;;;18.85;44.39;99621.19;5033138;28;8994;-74
2022/05/15 02:11:59;;;;;;;;;14.00;14.00;;;;;18.85;44.48;99615.91;5052117;28;8944;-74
2022/05/15 02:14:28;;;;;;;;;14.60;13.00;;;;;18.79;44.53;99619.59;5069437;28;8854;-73
2022/05/15 02:16:57;;;;;;;;;13.00;12.60;;;;;18.78;44.10;99622.28;5002139;28;8860;-73
2022/05/15 02:19:31;;;;;;;;;14.20;14.20;;;;;18.71;44.72;99616.31;5033090;28;8867;-75
2022/05/15 02:21:59;;;;;;;;;13.80;13.20;;;;;18.70;44.91;99618.09;5049124;28;9624;-73
2022/05/15 02:24:28;;;;;;;;;12.00;12.00;;;;;18.59;45.21;99617.59;5033163;28;8849;-76
2022/05/15 02:26:58;;;;;;;;;15.20;15.20;;;;;18.55;45.18;99607.19;5050287;28;8989;-74
2022/05/15 02:29:28;;;;;;;;;15.40;14.00;;;;;18.31;45.58;99621.09;5069079;28;8996;-73
2022/05/15 02:31:56;;;;;;;;;14.80;13.80;;;;;18.34;45.63;99627.22;5069044;28;8872;-73
2022/05/15 02:34:25;;;;;;;;;11.80;11.20;;;;;18.30;45.75;99631.72;5014505;28;8856;-74
2022/05/15 02:36:54;;;;;;;;;12.20;11.20;;;;;18.32;45.73;99627.25;5047467;28;8839;-74
2022/05/15 02:39:23;;;;;;;;;13.40;13.40;;;;;18.30;46.31;99637.84;5030976;28;8994;-73
2022/05/15 02:41:53;;;;;;;;;12.00;11.00;;;;;18.32;46.36;99637.81;5014619;28;8909;-74
2022/05/15 02:44:23;;;;;;;;;13.80;12.80;;;;;18.35;46.29;99636.84;5051739;28;9709;-74
2022/05/15 02:46:54;;;;;;;;;14.40;14.40;;;;;18.35;45.79;99639.50;5014407;28;8933;-75
2022/05/15 02:52:09;;;;;;;;;13.75;13.75;;;;;18.31;46.38;99634.28;5000425;28;8865;-74
2022/05/15 02:54:38;;;;;;;;;14.20;12.80;;;;;18.31;46.07;99633.44;5030750;28;8958;-75
2022/05/15 02:57:09;;;;;;;;;15.20;13.40;;;;;18.31;46.38;99636.94;5030897;28;8861;-74
2022/05/15 02:59:39;;;;;;;;;13.20;12.60;;;;;18.30;46.45;99640.50;5028433;28;8846;-74
2022/05/15 03:02:08;;;;;;;;;13.00;12.60;;;;;18.28;46.48;99634.41;5033363;28;8872;-72
2022/05/15 03:04:37;;;;;;;;;15.00;14.00;;;;;18.28;46.25;99637.03;5029403;28;8854;-73
2022/05/15 03:07:07;;;;;;;;;11.50;11.50;;;;;18.27;46.65;99637.94;5028360;28;8855;-74
2022/05/15 03:09:36;;;;;;;;;16.00;12.80;;;;;18.24;46.73;99634.53;5057446;28;8846;-74
2022/05/15 03:12:05;;;;;;;;;14.75;13.75;;;;;18.23;46.96;99641.59;5013008;28;8860;-75
2022/05/15 03:14:34;;;;;;;;;14.20;14.20;;;;;18.20;46.75;99641.66;5064925;28;8866;-74
2022/05/15 03:17:04;;;;;;;;;12.20;12.20;;;;;18.19;46.89;99644.38;5064938;28;8941;-74
2022/05/15 03:19:32;;;;;;;;;15.50;14.00;;;;;18.04;47.02;99641.28;5027999;28;9006;-73
2022/05/15 03:22:01;;;;;;;;;13.80;13.80;;;;;18.04;47.30;99643.06;5063115;28;8924;-73
2022/05/15 03:24:30;;;;;;;;;15.00;14.25;;;;;17.98;47.23;99645.88;5062920;28;9577;-75
2022/05/15 03:27:00;;;;;;;;;13.00;13.00;;;;;17.87;47.33;99646.19;5044812;28;8927;-73
2022/05/15 03:29:30;;;;;;;;;13.40;11.60;;;;;17.93;47.58;99651.28;5047728;28;8882;-74
2022/05/15 03:31:59;;;;;;;;;15.50;15.50;;;;;17.98;47.65;99652.03;5045084;28;8832;-73
2022/05/15 03:34:29;;;;;;;;;12.60;12.40;;;;;18.04;47.63;99656.25;5028289;28;8850;-73
2022/05/15 03:36:57;;;;;;;;;13.80;12.80;;;;;18.07;47.35;99654.41;5043860;28;8851;-74
2022/05/15 03:39:26;;;;;;;;;11.00;10.60;;;;;18.12;46.83;99656.88;5046291;28;8888;-73
2022/05/15 03:41:55;;;;;;;;;15.60;14.60;;;;;18.07;47.51;99662.31;5044876;28;8856;-75
2022/05/15 03:44:24;;;;;;;;;47.75;36.75;;;;;18.01;47.47;99662.47;5011239;28;8837;-74
2022/05/15 03:46:52;;;;;;;;;19.50;19.50;;;;;18.02;47.75;99663.34;5044271;28;8866;-75
2022/05/15 03:49:21;;;;;;;;;17.25;16.50;;;;;18.00;47.55;99665.19;5044309;28;8861;-73
2022/05/15 03:51:51;;;;;;;;;15.00;13.60;;;;;18.08;47.17;99652.63;5044366;28;8845;-74
2022/05/15 03:54:20;;;;;;;;;12.50;12.50;;;;;18.14;47.61;99652.41;5043945;28;8863;-75
2022/05/15 03:56:51;;;;;;;;;14.60;14.60;;;;;18.22;46.81;99658.34;5044430;28;8852;-74
2022/05/15 03:59:25;;;;;;;;;13.20;12.20;;;;;18.23;47.20;99657.44;5061348;28;8860;-76
2022/05/15 04:01:53;;;;;;;;;14.00;14.00;;;;;18.19;46.76;99654.94;5061827;28;8864;-75
2022/05/15 04:04:23;;;;;;;;;15.80;13.80;;;;;18.29;47.04;99666.94;5045744;28;8839;-74
2022/05/15 04:06:53;;;;;;;;;16.20;14.60;;;;;18.30;47.06;99664.25;5028205;28;8852;-74
2022/05/15 04:09:22;;;;;;;;;17.40;15.20;;;;;18.40;46.52;99661.34;5044266;28;9386;-75
2022/05/15 04:11:51;;;;;;;;;16.00;14.25;;;;;18.54;46.21;99669.69;5013034;28;8871;-73
2022/05/15 04:14:21;;;;;;;;;15.00;15.00;;;;;18.69;46.03;99666.59;5062012;28;8882;-75
2022/05/15 04:16:49;;;;;;;;;25.50;25.00;;;;;18.78;45.86;99661.91;5028669;28;8965;-74
2022/05/15 04:19:18;;;;;;;;;16.50;15.25;;;;;18.85;45.63;99666.13;5047533;28;8834;-74
2022/05/15 04:21:47;;;;;;;;;20.25;18.50;;;;;18.82;45.67;99666.19;5063458;28;8989;-73
2022/05/15 04:24:18;;;;;;;;;18.50;18.50;;;;;18.92;45.65;99669.41;5046438;28;8899;-73
2022/05/15 04:26:47;;;;;;;;;15.50;15.50;;;;;18.88;45.12;99668.63;5028051;28;8862;-73
2022/05/15 04:29:17;;;;;;;;;14.40;13.20;;;;;18.88;45.50;99666.00;5046641;28;9704;-73
2022/05/15 04:31:45;;;;;;;;;14.40;14.40;;;;;19.07;45.16;99671.53;5047004;28;8870;-74
2022/05/15 04:34:14;;;;;;;;;15.00;15.00;;;;;19.19;44.67;99678.22;5049050;28;8886;-73
2022/05/15 04:36:42;;;;;;;;;15.60;14.00;;;;;19.36;44.68;99685.56;5065024;28;8878;-74
2022/05/15 04:39:11;;;;;;;;;13.00;13.00;;;;;19.46;44.21;99692.25;5048451;28;8859;-73
2022/05/15 04:41:41;;;;;;;;;15.60;14.60;;;;;19.55;44.16;99686.66;5065205;28;8840;-74
2022/05/15 04:44:10;;;;;;;;;13.20;13.20;;;;;19.67;44.14;99688.84;5064173;28;8865;-74
2022/05/15 04:46:38;;;;;;;;;15.40;13.40;;;;;19.81;43.76;99684.88;5064697;28;8868;-73
2022/05/15 04:49:08;;;;;;;;;13.60;12.40;;;;;19.95;43.64;99692.34;5048550;28;8884;-73
2022/05/15 04:51:36;;;;;;;;;14.00;12.80;;;;;20.04;43.19;99697.28;5064986;28;9649;-74
2022/05/15 04:54:05;;;;;;;;;14.60;14.40;;;;;20.12;43.23;99694.34;5048244;28;8974;-73
2022/05/15 04:56:33;;;;;;;;;15.00;15.00;;;;;20.14;42.80;99690.72;5064400;28;8899;-75
2022/05/15 04:59:03;;;;;;;;;15.25;15.00;;;;;20.20;42.87;99700.22;5060846;28;8857;-73
2022/05/15 05:01:32;;;;;;;;;15.20;15.20;;;;;20.07;42.63;99705.09;5045071;28;8896;-73
2022/05/15 05:04:01;;;;;;;;;15.75;15.50;;;;;19.92;43.12;99709.16;5027795;28;9573;-74
2022/05/15 05:06:30;;;;;;;;;14.80;14.00;;;;;19.91;43.39;99710.09;5062810;28;8932;-73
2022/05/15 05:08:58;;;;;;;;;14.00;14.00;;;;;20.05;43.22;99717.53;5048030;28;8839;-73
2022/05/15 05:11:27;;;;;;;;;13.00;12.80;;;;;20.21;43.02;99716.06;5049228;28;8851;-75
2022/05/15 05:13:56;;;;;;;;;18.00;15.50;;;;;20.34;42.40;99712.91;5033317;28;8842;-74
2022/05/15 05:16:26;;;;;;;;;10.00;10.00;;;;;20.46;42.15;99725.72;5051238;28;8866;-74
2022/05/15 05:18:55;;;;;;;;;17.50;15.50;;;;;20.24;42.46;99717.72;5052001;28;8866;-72
2022/05/15 05:21:23;;;;;;;;;16.00;14.40;;;;;20.24;42.66;99721.25;5051365;28;8874;-74
2022/05/15 05:23:52;;;;;;;;;15.50;15.00;;;;;20.40;41.83;99726.81;5016347;28;8874;-75
2022/05/15 05:26:21;;;;;;;;;14.40;14.40;;;;;20.59;42.22;99721.66;5048916;28;9624;-75
2022/05/15 05:28:50;;;;;;;;;16.75;16.50;;;;;20.62;42.36;99726.00;5050862;28;8854;-73
2022/05/15 05:31:18;;;;;;;;;16.00;15.80;;;;;20.57;42.25;99723.50;5050379;28;9033;-74
2022/05/15 05:33:49;;;;;;;;;15.00;15.00;;;;;20.74;41.96;99729.97;5050462;28;9544;-73
2022/05/15 05:36:17;;;;;;;;;14.20;14.20;;;;;20.89;41.61;99725.84;5050855;28;9048;-73
2022/05/15 05:38:46;;;;;;;;;18.40;18.00;;;;;20.80;41.75;99727.09;5015633;28;8966;-72
2022/05/15 05:41:15;;;;;;;;;16.20;16.00;;;;;20.91;42.15;99730.16;5050732;28;8850;-73
2022/05/15 05:43:43;;;;;;;;;56.25;46.50;;;;;21.06;41.95;99726.03;5050394;28;8873;-73
2022/05/15 05:46:12;;;;;;;;;22.50;21.50;;;;;21.18;41.62;99720.22;5050831;28;8862;-74
2022/05/15 05:48:45;;;;;;;;;20.00;18.75;;;;;21.36;41.20;99731.84;5036524;28;8832;-74
2022/05/15 05:51:16;;;;;;;;;15.00;13.75;;;;;21.49;40.98;99728.69;4987593;28;9015;-72
2022/05/15 05:53:45;;;;;;;;;13.50;13.50;;;;;21.65;41.08;99736.88;5064568;28;8852;-73
2022/05/15 05:56:14;;;;;;;;;9.25;8.50;;;;;21.74;40.42;99737.34;5048850;28;8989;-74
2022/05/15 05:58:49;;;;;;;;;33.00;31.50;;;;;21.77;40.25;99734.53;5056856;28;8872;-74
2022/05/15 06:01:17;;;;;;;;;24.00;23.50;;;;;21.79;40.25;99731.81;5050706;28;9620;-74
2022/05/15 06:06:34;;;;;;;;;15.25;15.25;;;;;22.13;39.55;99733.84;5052638;28;8874;-68
2022/05/15 06:09:02;;;;;;;;;16.25;15.75;;;;;22.11;39.11;99738.34;5050283;28;8855;-70
2022/05/15 06:11:31;;;;;;;;;15.25;15.25;;;;;22.17;39.21;99732.78;5050039;28;8874;-69
2022/05/15 06:14:00;;;;;;;;;14.25;14.25;;;;;22.25;38.88;99735.13;5049629;28;8866;-70
2022/05/15 06:16:31;;;;;;;;;14.00;13.25;;;;;22.28;39.10;99734.13;5050146;28;8880;-70
2022/05/15 06:19:00;;;;;;;;;17.33;16.67;;;;;22.14;39.68;99742.69;5049902;28;8858;-68
2022/05/15 06:21:29;;;;;;;;;50.00;41.75;;;;;21.54;40.14;99740.84;5049012;28;8861;-69
2022/05/15 06:23:59;;;;;;;;;16.75;16.25;;;;;21.12;41.47;99748.78;5061791;28;8846;-70
2022/05/15 06:26:27;;;;;;;;;19.00;17.25;;;;;21.28;41.69;99754.31;5049964;28;8850;-75
2022/05/15 06:28:56;;;;;;;;;13.50;13.50;;;;;21.48;41.37;99750.88;5052947;28;8850;-76
2022/05/15 06:31:24;;;;;;;;;16.25;15.25;;;;;21.74;40.81;99747.97;5049500;28;8858;-75
2022/05/15 06:33:53;;;;;;;;;14.50;14.00;;;;;21.95;40.28;99747.97;5049737;28;8850;-76
2022/05/15 06:36:22;;;;;;;;;17.25;17.25;;;;;22.13;39.77;99743.59;5049541;28;8935;-73
2022/05/15 06:38:50;;;;;;;;;15.20;14.00;;;;;22.32;39.28;99739.19;5053781;28;8981;-77
2022/05/15 06:41:21;;;;;;;;;14.75;14.75;;;;;22.46;38.99;99738.59;5055020;28;8860;-75
2022/05/15 06:43:50;;;;;;;;;17.25;17.25;;;;;22.24;39.46;99741.31;5057082;28;8876;-76
2022/05/15 06:46:18;;;;;;;;;17.75;17.50;;;;;22.44;38.89;99740.47;5062500;28;8856;-73
2022/05/15 06:48:47;;;;;;;;;15.75;15.75;;;;;22.34;39.42;99744.44;5069462;28;8954;-73
2022/05/15 06:51:16;;;;;;;;;12.80;12.80;;;;;22.49;38.51;99738.44;5069335;28;8938;-73
2022/05/15 06:53:45;;;;;;;;;61.25;49.50;;;;;22.49;38.72;99743.75;5051099;28;8860;-76
2022/05/15 06:59:03;;;;;;;;;17.75;16.50;;;;;21.91;39.25;99754.31;5051754;28;8850;-74
2022/05/15 07:01:32;;;;;;;;;15.60;15.60;;;;;22.23;39.77;99749.38;5049161;28;8862;-74
2022/05/15 07:04:01;;;;;;;;;59.00;48.50;;;;;22.58;39.15;99747.78;5033261;28;9649;-75
2022/05/15 07:06:30;;;;;;;;;22.00;20.25;;;;;22.76;38.58;99744.25;5048973;28;8895;-75
2022/05/15 07:08:59;;;;;;;;;15.80;14.80;;;;;22.92;38.23;99746.16;5051600;28;9604;-74
2022/05/15 07:11:28;;;;;;;;;14.75;13.50;;;;;22.90;38.31;99740.06;5067583;28;8870;-75
2022/05/15 07:13:57;;;;;;;;;14.20;14.00;;;;;22.97;37.95;99744.16;5067282;28;8864;-76
2022/05/15 07:16:27;;;;;;;;;14.00;14.00;;;;;23.11;38.03;99744.38;5022572;28;8843;-74
2022/05/15 07:18:56;;;;;;;;;16.40;16.00;;;;;23.22;37.60;99743.00;5060942;28;10020;-75
2022/05/15 07:21:24;;;;;;;;;15.00;15.00;;;;;23.28;37.37;99743.53;5039025;28;8870;-75
2022/05/15 07:23:53;;;;;;;;;19.00;15.40;;;;;23.00;37.11;99749.31;5030418;28;8855;-73
2022/05/15 07:26:22;;;;;;;;;14.75;14.75;;;;;22.28;37.24;99753.56;5043425;28;8979;-76
2022/05/15 07:28:51;;;;;;;;;14.80;14.00;;;;;21.64;38.55;99754.59;5063508;28;8936;-74
2022/05/15 07:31:20;;;;;;;;;14.00;14.00;;;;;21.79;39.08;99769.00;5049994;28;8877;-75
2022/05/15 07:33:51;;;;;;;;;18.50;15.50;;;;;21.16;41.09;99761.84;5029762;28;9676;-73
2022/05/15 07:36:19;;;;;;;;;16.75;15.25;;;;;20.89;41.59;99763.84;5028416;28;8846;-74
2022/05/15 07:38:48;;;;;;;;;16.00;16.00;;;;;20.98;41.81;99755.53;5040570;28;9639;-72
2022/05/15 07:41:17;;;;;;;;;13.40;13.40;;;;;21.15;39.71;99767.22;5053356;28;9619;-74
2022/05/15 07:43:45;;;;;;;;;15.20;13.60;;;;;20.95;40.11;99766.22;5021039;28;8882;-74
2022/05/15 07:46:14;;;;;;;;;17.20;16.60;;;;;21.21;39.96;99761.69;5059697;28;8866;-71
2022/05/15 07:48:42;;;;;;;;;13.40;13.40;;;;;21.42;39.82;99757.28;5054458;28;8850;-72
2022/05/15 07:51:12;;;;;;;;;14.60;13.80;;;;;21.96;39.02;99754.97;5046456;28;8997;-74
2022/05/15 07:53:41;;;;;;;;;13.00;12.00;;;;;21.84;37.36;99761.69;5047954;28;8843;-72
2022/05/15 07:56:12;;;;;;;;;14.60;12.60;;;;;21.84;37.73;99771.47;5062778;28;8868;-75
2022/05/15 07:58:43;;;;;;;;;11.80;11.80;;;;;21.75;38.76;99765.59;5056379;28;8844;-73
2022/05/15 08:01:11;;;;;;;;;17.00;16.80;;;;;21.84;38.35;99768.81;5064662;28;8863;-72
2022/05/15 08:03:43;;;;;;;;;14.40;13.60;;;;;22.03;37.33;99761.75;5066156;28;8895;-70
2022/05/15 08:09:03;;;;;;;;;14.80;14.80;;;;;22.27;37.19;99757.19;5065188;28;8881;-74
2022/05/15 08:11:31;;;;;;;;;13.60;13.60;;;;;22.46;36.64;99757.19;5064042;28;8903;-70
2022/05/15 08:14:01;;;;;;;;;13.40;12.60;;;;;22.62;34.57;99761.78;5032167;28;8966;-72
2022/05/15 08:16:30;;;;;;;;;9.60;9.60;;;;;22.15;36.61;99763.00;5064869;28;8971;-72
2022/05/15 08:24:32;;;;;;;;;11.60;11.60;;;;;22.19;36.64;99769.88;4986376;28;8881;-73
2022/05/15 08:27:00;;;;;;;;;10.80;10.80;;;;;22.36;36.73;99763.84;4984963;28;9004;-69
2022/05/15 08:29:34;;;;;;;;;12.40;12.20;;;;;22.13;37.25;99768.38;4999434;28;9755;-71
2022/05/15 08:32:04;;;;;;;;;23.50;23.25;;;;;22.34;37.59;99761.28;4994700;28;8895;-72
2022/05/15 08:34:32;;;;;;;;;14.60;13.60;;;;;22.74;37.55;99766.50;5000481;28;9531;-73
2022/05/15 08:37:03;;;;;;;;;12.40;11.40;;;;;22.18;37.55;99771.69;4985592;28;8848;-75
2022/05/15 08:39:32;;;;;;;;;50.75;42.75;;;;;22.51;36.87;99763.16;5002820;28;8870;-72
2022/05/15 08:42:17;;;;;;;;;17.75;16.75;;;;;22.95;36.06;99762.84;4988275;28;9097;-76
2022/05/15 08:44:47;;;;;;;;;10.80;10.00;;;;;22.62;34.88;99767.09;5004943;28;8855;-74
2022/05/15 08:47:19;;;;;;;;;9.80;9.40;;;;;22.39;33.89;99774.34;5007868;28;8908;-66
2022/05/15 08:49:53;;;;;;;;;11.40;11.40;;;;;22.33;34.49;99769.31;5008007;28;8874;-73
2022/05/15 08:52:27;;;;;;;;;13.60;11.80;;;;;22.31;36.18;99766.72;4979972;28;8872;-71
2022/05/15 08:55:02;;;;;;;;;11.40;9.60;;;;;22.25;37.39;99768.75;4976515;28;8844;-72
2022/05/15 08:57:41;;;;;;;;;13.00;13.00;;;;;22.10;37.55;99772.97;5009589;28;8878;-72
2022/05/15 09:00:14;;;;;;;;;14.80;14.20;;;;;22.23;37.18;99776.81;5009214;28;8847;-77
2022/05/15 09:02:44;;;;;;;;;13.80;13.40;;;;;22.09;38.50;99764.13;5004365;28;8880;-72
2022/05/15 09:05:15;;;;;;;;;18.00;16.00;;;;;22.51;37.71;99762.28;5071198;28;8876;-72
2022/05/15 09:07:54;;;;;;;;;15.80;14.80;;;;;22.66;37.71;99761.56;5069667;28;8867;-73
2022/05/15 09:10:31;;;;;;;;;10.25;10.25;;;;;23.03;36.48;99762.50;5050444;28;9009;-71
2022/05/15 09:13:11;;;;;;;;;13.75;11.75;;;;;22.50;36.39;99766.75;5037022;28;8864;-72
2022/05/15 09:15:50;;;;;;;;;14.25;14.25;;;;;22.62;35.95;99757.31;5064737;28;8851;-72
2022/05/15 09:18:21;;;;;;;;;15.00;15.00;;;;;22.92;35.10;99751.50;5050412;28;8866;-73
2022/05/15 09:21:01;;;;;;;;;11.80;11.80;;;;;23.25;35.75;99759.66;5065080;28;8855;-73
2022/05/15 09:23:34;;;;;;;;;14.50;13.75;;;;;23.05;36.15;99752.66;5052991;28;8840;-74
2022/05/15 09:26:13;;;;;;;;;11.25;11.25;;;;;22.94;35.24;99746.97;5049304;28;8850;-74
2022/05/15 09:28:44;;;;;;;;;11.00;10.00;;;;;23.32;34.95;99741.56;4999015;28;8854;-75
2022/05/15 09:31:30;;;;;;;;;10.60;9.80;;;;;23.44;34.52;99745.41;5046677;28;8894;-77
2022/05/15 09:34:03;;;;;;;;;12.00;10.40;;;;;23.47;34.43;99742.59;5051459;28;8835;-79
2022/05/15 09:36:42;;;;;;;;;10.80;9.60;;;;;23.69;34.70;99740.56;5051126;28;8876;-78
2022/05/15 09:39:19;;;;;;;;;10.00;10.00;;;;;23.77;33.02;99736.66;5054126;28;8865;-76
2022/05/15 09:44:47;;;;;;;;;9.00;9.00;;;;;23.26;32.95;99745.41;5061002;28;9750;-73
2022/05/15 09:47:23;;;;;;;;;10.00;10.00;;;;;22.82;33.96;99743.09;5063428;28;8867;-74
2022/05/15 09:49:52;;;;;;;;;11.00;11.00;;;;;22.82;34.45;99740.44;5065627;28;8859;-74
2022/05/15 09:52:28;;;;;;;;;11.60;11.60;;;;;23.08;34.54;99741.88;5050381;28;8834;-66
2022/05/15 09:55:09;;;;;;;;;10.60;10.60;;;;;23.32;34.46;99734.44;5049812;28;8874;-68
2022/05/15 09:57:52;;;;;;;;;10.40;10.40;;;;;23.59;33.56;99734.00;5048333;28;8839;-72
2022/05/15 10:00:23;;;;;;;;;11.80;10.00;;;;;23.83;33.04;99741.69;5069635;28;8889;-68
2022/05/15 10:02:53;;;;;;;;;9.60;8.60;;;;;23.42;32.97;99739.31;5052995;28;8842;-69
2022/05/15 10:05:25;;;;;;;;;12.20;12.00;;;;;23.35;33.26;99744.09;5049458;28;8882;-67
2022/05/15 10:08:00;;;;;;;;;8.80;8.80;;;;;23.27;32.61;99739.16;5048695;28;8842;-69
2022/05/15 10:10:34;;;;;;;;;10.80;9.00;;;;;22.96;33.57;99745.94;5049513;28;8864;-71
2022/05/15 10:13:09;;;;;;;;;12.80;11.20;;;;;23.24;33.89;99743.78;5057099;28;8909;-73
2022/05/15 10:15:42;;;;;;;;;9.60;9.60;;;;;23.32;33.43;99736.25;5068835;28;8852;-71
2022/05/15 10:18:16;;;;;;;;;15.00;11.40;;;;;23.28;33.72;99727.56;5069747;28;8891;-74
2022/05/15 10:20:47;;;;;;;;;10.20;10.20;;;;;23.56;33.60;99736.81;5069956;28;9037;-74
2022/05/15 10:23:19;;;;;;;;;10.60;10.60;;;;;23.58;32.18;99731.44;5069276;28;8856;-72
2022/05/15 10:25:57;;;;;;;;;9.40;9.40;;;;;23.33;31.87;99733.53;5051314;28;8866;-73
2022/05/15 10:28:39;;;;;;;;;10.20;9.00;;;;;23.28;32.53;99726.72;5067609;28;8848;-74
2022/05/15 10:31:17;;;;;;;;;11.60;11.00;;;;;23.06;32.52;99730.44;5044938;28;8858;-74
2022/05/15 10:33:50;;;;;;;;;8.60;8.60;;;;;23.34;32.98;99732.56;5057716;28;8855;-74
2022/05/15 10:36:33;;;;;;;;;8.40;8.00;;;;;23.84;32.77;99719.47;5050237;28;8897;-72
2022/05/15 10:39:12;;;;;;;;;10.00;9.60;;;;;24.29;31.92;99720.56;5061621;28;8878;-70
2022/05/15 10:41:54;;;;;;;;;12.00;11.60;;;;;24.23;31.84;99721.75;5052818;28;8854;-71
2022/05/15 10:44:37;;;;;;;;;12.80;10.80;;;;;23.87;30.93;99717.47;5055887;28;8820;-71
2022/05/15 10:47:12;;;;;;;;;10.80;10.40;;;;;23.78;30.90;99723.28;5068579;28;8929;-72
2022/05/15 10:49:57;;;;;;;;;10.40;9.40;;;;;24.23;31.70;99712.91;5050905;28;8859;-73
2022/05/15 10:52:48;;;;;;;;;11.20;11.20;;;;;24.65;30.44;99707.06;5050417;28;8896;-70
2022/05/15 10:58:19;;;;;;;;;10.80;10.80;;;;;24.65;30.85;99700.84;5032045;28;9095;-70
2022/05/15 11:01:02;;;;;;;;;9.80;9.80;;;;;25.10;30.17;99696.50;5065661;28;8849;-69
2022/05/15 11:03:49;;;;;;;;;12.40;11.80;;;;;24.87;29.37;99713.84;5068530;28;8867;-71
2022/05/15 11:06:56;;;;;;;;;11.00;10.00;;;;;25.14;29.43;99695.38;5062765;28;8869;-70
2022/05/15 11:09:36;;;;;;;;;11.40;11.20;;;;;25.10;29.26;99696.50;5006002;28;8828;-71
2022/05/15 11:12:18;;;;;;;;;9.20;9.20;;;;;25.29;29.67;99690.97;5022353;28;8838;-70
2022/05/15 11:15:08;;;;;;;;;11.40;11.40;;;;;25.25;29.24;99686.75;5024728;28;8876;-71
2022/05/15 11:17:45;;;;;;;;;3.60;3.60;;;;;25.20;29.36;99679.00;5025497;28;8846;-70
2022/05/15 11:20:23;;;;;;;;;11.00;11.00;;;;;25.44;29.23;99676.72;5023646;28;8897;-72
2022/05/15 11:22:58;;;;;;;;;10.60;9.40;;;;;25.17;29.29;99686.34;4991959;28;8854;-73
2022/05/15 11:25:33;;;;;;;;;11.40;9.40;;;;;25.31;28.81;99680.19;5025259;28;8870;-73
2022/05/15 11:28:10;;;;;;;;;10.60;10.40;;;;;25.34;28.31;99683.56;4992849;28;8946;-71
2022/05/15 11:30:44;;;;;;;;;13.20;11.20;;;;;25.84;28.60;99678.75;5025777;28;8872;-73
2022/05/15 11:33:30;;;;;;;;;8.60;8.60;;;;;26.25;26.86;99670.00;5025344;28;8927;-71
2022/05/15 11:36:14;;;;;;;;;10.20;10.00;;;;;26.66;26.32;99662.97;5025968;28;8826;-71
2022/05/15 11:39:00;;;;;;;;;8.40;8.40;;;;;26.89;25.49;99658.78;5009444;28;8846;-70
2022/05/15 11:42:09;;;;;;;;;7.80;7.80;;;;;27.35;25.79;99664.59;5025365;28;8891;-70
2022/05/15 11:44:40;;;;;;;;;9.60;9.60;;;;;27.90;25.20;99667.09;5024503;28;8830;-71
2022/05/15 11:47:31;;;;;;;;;9.00;8.20;;;;;26.87;26.27;99668.72;5032851;28;8976;-74
2022/05/15 11:50:06;;;;;;;;;8.40;8.40;;;;;27.02;26.45;99659.69;5056762;28;8876;-70
2022/05/15 11:52:40;;;;;;;;;10.60;10.60;;;;;26.78;27.09;99654.97;5057363;28;8852;-72
2022/05/15 11:55:38;;;;;;;;;10.60;9.60;;;;;26.23;27.79;99667.41;5060748;28;9019;-71
2022/05/15 11:58:33;;;;;;;;;9.00;8.60;;;;;26.68;27.56;99651.22;5051711;28;8881;-73
2022/05/15 12:01:07;;;;;;;;;7.80;7.80;;;;;27.14;27.57;99655.31;5059115;28;9086;-70
2022/05/15 12:03:51;;;;;;;;;16.75;16.75;;;;;26.99;26.93;99644.69;5061631;28;8878;-70
2022/05/15 12:06:23;;;;;;;;;9.00;9.00;;;;;27.55;25.60;99648.97;5057858;28;8877;-71
2022/05/15 12:09:14;;;;;;;;;8.20;8.20;;;;;27.92;25.34;99647.28;5059862;28;8978;-74
2022/05/15 12:11:44;;;;;;;;;8.20;8.20;;;;;28.52;25.14;99640.28;5056471;28;8842;-70